sensor_id;sensor_type;location;lat;lon;timestamp;temperature;humidity
20911;DHT22;10615;42.702;23.314;2023-01-25T00:00:05;3.10;99.90
20911;DHT22;10615;42.702;23.314;2023-01-25T00:01:06;3.10;99.90
20911;DHT22;10615;42.702;23.314;2023-01-25T00:02:07;3.10;99.90
20911;DHT22;10615;42.702;23.314;2023-01-25T00:03:08;3.10;99.90
20911;DHT22;10615;42.702;23.314;2023-01-25T00:04:09;3.10;99.90
20911;DHT22;10615;42.702;23.314;2023-01-25T00:05:09;3.10;99.90
20911;DHT22;10615;42.702;23.314;2023-01-25T00:06:10;3.00;99.90
20911;DHT22;10615;42.702;23.314;2023-01-25T00:07:10;3.00;99.90
20911;DHT22;10615;42.702;23.314;2023-01-25T00:08:11;3.00;99.90
20911;DHT22;10615;42.702;23.314;2023-01-25T00:09:12;3.00;99.90
20911;DHT22;10615;42.702;23.314;2023-01-25T00:10:12;3.00;99.90
20911;DHT22;10615;42.702;23.314;2023-01-25T00:11:13;3.00;99.90
20911;DHT22;10615;42.702;23.314;2023-01-25T00:12:16;3.00;99.90
20911;DHT22;10615;42.702;23.314;2023-01-25T00:13:17;3.00;99.90
20911;DHT22;10615;42.702;23.314;2023-01-25T00:14:18;3.00;99.90
20911;DHT22;10615;42.702;23.314;2023-01-25T00:15:18;2.90;99.90
20911;DHT22;10615;42.702;23.314;2023-01-25T00:16:19;3.00;99.90
20911;DHT22;10615;42.702;23.314;2023-01-25T00:17:20;3.00;99.90
20911;DHT22;10615;42.702;23.314;2023-01-25T00:18:20;2.90;99.90
20911;DHT22;10615;42.702;23.314;2023-01-25T00:19:21;3.00;99.90
20911;DHT22;10615;42.702;23.314;2023-01-25T00:20:23;3.00;99.90
20911;DHT22;10615;42.702;23.314;2023-01-25T00:21:25;2.90;99.90
20911;DHT22;10615;42.702;23.314;2023-01-25T00:22:25;2.90;99.90
20911;DHT22;10615;42.702;23.314;2023-01-25T00:23:26;2.90;99.90
20911;DHT22;10615;42.702;23.314;2023-01-25T00:24:27;2.90;99.90
20911;DHT22;10615;42.702;23.314;2023-01-25T00:25:27;2.90;99.90
20911;DHT22;10615;42.702;23.314;2023-01-25T00:26:32;3.00;99.90
20911;DHT22;10615;42.702;23.314;2023-01-25T00:27:33;3.00;99.90
20911;DHT22;10615;42.702;23.314;2023-01-25T00:28:33;2.90;99.90
20911;DHT22;10615;42.702;23.314;2023-01-25T00:29:34;3.00;99.90
20911;DHT22;10615;42.702;23.314;2023-01-25T00:30:35;3.00;99.90
20911;DHT22;10615;42.702;23.314;2023-01-25T00:35:29;2.90;99.90
20911;DHT22;10615;42.702;23.314;2023-01-25T00:36:38;2.90;99.90
20911;DHT22;10615;42.702;23.314;2023-01-25T00:37:43;2.90;99.90
20911;DHT22;10615;42.702;23.314;2023-01-25T00:38:46;2.90;99.90
20911;DHT22;10615;42.702;23.314;2023-01-25T00:39:47;2.90;99.90
20911;DHT22;10615;42.702;23.314;2023-01-25T00:40:48;2.90;99.90
20911;DHT22;10615;42.702;23.314;2023-01-25T00:41:49;2.90;99.90
20911;DHT22;10615;42.702;23.314;2023-01-25T00:42:49;2.90;99.90
20911;DHT22;10615;42.702;23.314;2023-01-25T00:43:50;2.90;99.90
20911;DHT22;10615;42.702;23.314;2023-01-25T00:44:51;2.90;99.90
20911;DHT22;10615;42.702;23.314;2023-01-25T00:45:51;2.90;99.90
20911;DHT22;10615;42.702;23.314;2023-01-25T00:46:52;2.90;99.90
20911;DHT22;10615;42.702;23.314;2023-01-25T00:47:55;2.90;99.90
20911;DHT22;10615;42.702;23.314;2023-01-25T00:48:56;2.90;99.90
20911;DHT22;10615;42.702;23.314;2023-01-25T00:49:57;2.90;99.90
20911;DHT22;10615;42.702;23.314;2023-01-25T00:51:01;2.90;99.90
20911;DHT22;10615;42.702;23.314;2023-01-25T00:52:02;2.90;99.90
20911;DHT22;10615;42.702;23.314;2023-01-25T00:53:03;2.90;99.90
20911;DHT22;10615;42.702;23.314;2023-01-25T00:54:04;2.90;99.90
20911;DHT22;10615;42.702;23.314;2023-01-25T00:55:05;2.90;99.90
20911;DHT22;10615;42.702;23.314;2023-01-25T00:56:06;2.80;99.90
20911;DHT22;10615;42.702;23.314;2023-01-25T00:57:07;2.90;99.90
20911;DHT22;10615;42.702;23.314;2023-01-25T00:58:08;2.80;99.90
20911;DHT22;10615;42.702;23.314;2023-01-25T00:59:10;2.80;99.90
20911;DHT22;10615;42.702;23.314;2023-01-25T01:00:11;2.80;99.90
20911;DHT22;10615;42.702;23.314;2023-01-25T01:01:12;2.90;99.90
20911;DHT22;10615;42.702;23.314;2023-01-25T01:02:13;2.90;99.90
20911;DHT22;10615;42.702;23.314;2023-01-25T01:03:13;2.90;99.90
20911;DHT22;10615;42.702;23.314;2023-01-25T01:04:15;2.90;99.90
20911;DHT22;10615;42.702;23.314;2023-01-25T01:05:16;2.90;99.90
20911;DHT22;10615;42.702;23.314;2023-01-25T01:06:16;2.90;99.90
20911;DHT22;10615;42.702;23.314;2023-01-25T01:07:17;3.00;99.90
20911;DHT22;10615;42.702;23.314;2023-01-25T01:08:17;3.00;99.90
20911;DHT22;10615;42.702;23.314;2023-01-25T01:09:19;3.00;99.90
20911;DHT22;10615;42.702;23.314;2023-01-25T01:10:20;3.00;99.90
20911;DHT22;10615;42.702;23.314;2023-01-25T01:11:22;3.00;99.90
20911;DHT22;10615;42.702;23.314;2023-01-25T01:12:22;3.00;99.90
20911;DHT22;10615;42.702;23.314;2023-01-25T01:13:23;2.90;99.90
20911;DHT22;10615;42.702;23.314;2023-01-25T01:14:24;2.90;99.90
20911;DHT22;10615;42.702;23.314;2023-01-25T01:15:24;2.90;99.90
20911;DHT22;10615;42.702;23.314;2023-01-25T01:16:26;2.90;99.90
20911;DHT22;10615;42.702;23.314;2023-01-25T01:17:26;2.90;99.90
20911;DHT22;10615;42.702;23.314;2023-01-25T01:18:32;2.90;99.90
20911;DHT22;10615;42.702;23.314;2023-01-25T01:19:32;2.90;99.90
20911;DHT22;10615;42.702;23.314;2023-01-25T01:20:33;2.90;99.90
20911;DHT22;10615;42.702;23.314;2023-01-25T01:21:34;2.90;99.90
20911;DHT22;10615;42.702;23.314;2023-01-25T01:22:34;2.90;99.90
20911;DHT22;10615;42.702;23.314;2023-01-25T01:23:35;2.90;99.90
20911;DHT22;10615;42.702;23.314;2023-01-25T01:24:36;2.90;99.90
20911;DHT22;10615;42.702;23.314;2023-01-25T01:25:37;2.90;99.90
20911;DHT22;10615;42.702;23.314;2023-01-25T01:26:38;2.80;99.90
20911;DHT22;10615;42.702;23.314;2023-01-25T01:27:38;2.90;99.90
20911;DHT22;10615;42.702;23.314;2023-01-25T01:28:39;2.90;99.90
20911;DHT22;10615;42.702;23.314;2023-01-25T01:29:40;2.90;99.90
20911;DHT22;10615;42.702;23.314;2023-01-25T01:30:41;2.90;99.90
20911;DHT22;10615;42.702;23.314;2023-01-25T01:31:41;2.90;99.90
20911;DHT22;10615;42.702;23.314;2023-01-25T01:32:42;2.90;99.90
20911;DHT22;10615;42.702;23.314;2023-01-25T01:33:43;2.90;99.90
20911;DHT22;10615;42.702;23.314;2023-01-25T01:34:44;2.90;99.90
20911;DHT22;10615;42.702;23.314;2023-01-25T01:35:44;2.90;99.90
20911;DHT22;10615;42.702;23.314;2023-01-25T01:36:47;3.00;99.90
20911;DHT22;10615;42.702;23.314;2023-01-25T01:37:47;3.00;99.90
20911;DHT22;10615;42.702;23.314;2023-01-25T01:38:48;3.00;99.90
20911;DHT22;10615;42.702;23.314;2023-01-25T01:39:50;3.00;99.90
20911;DHT22;10615;42.702;23.314;2023-01-25T01:40:51;2.90;99.90
20911;DHT22;10615;42.702;23.314;2023-01-25T01:41:51;2.90;99.90
20911;DHT22;10615;42.702;23.314;2023-01-25T01:43:01;2.90;99.90
20911;DHT22;10615;42.702;23.314;2023-01-25T01:44:02;2.90;99.90
20911;DHT22;10615;42.702;23.314;2023-01-25T01:46:50;2.90;99.90
20911;DHT22;10615;42.702;23.314;2023-01-25T01:47:52;2.90;99.90
20911;DHT22;10615;42.702;23.314;2023-01-25T01:50:22;2.90;99.90
20911;DHT22;10615;42.702;23.314;2023-01-25T01:51:41;2.90;99.90
20911;DHT22;10615;42.702;23.314;2023-01-25T01:52:43;2.90;99.90
20911;DHT22;10615;42.702;23.314;2023-01-25T01:53:47;2.90;99.90
20911;DHT22;10615;42.702;23.314;2023-01-25T01:54:59;2.90;99.90
20911;DHT22;10615;42.702;23.314;2023-01-25T01:56:04;2.90;99.90
20911;DHT22;10615;42.702;23.314;2023-01-25T01:57:14;2.90;99.90
20911;DHT22;10615;42.702;23.314;2023-01-25T01:58:15;2.90;99.90
20911;DHT22;10615;42.702;23.314;2023-01-25T01:59:17;2.90;99.90
20911;DHT22;10615;42.702;23.314;2023-01-25T02:00:22;2.90;99.90
20911;DHT22;10615;42.702;23.314;2023-01-25T02:01:23;2.90;99.90
20911;DHT22;10615;42.702;23.314;2023-01-25T02:02:25;2.80;99.90
20911;DHT22;10615;42.702;23.314;2023-01-25T02:03:26;2.90;99.90
20911;DHT22;10615;42.702;23.314;2023-01-25T02:04:27;2.80;99.90
20911;DHT22;10615;42.702;23.314;2023-01-25T02:05:43;2.80;99.90
20911;DHT22;10615;42.702;23.314;2023-01-25T02:06:49;2.80;99.90
20911;DHT22;10615;42.702;23.314;2023-01-25T02:07:54;2.80;99.90
20911;DHT22;10615;42.702;23.314;2023-01-25T02:08:55;2.80;99.90
20911;DHT22;10615;42.702;23.314;2023-01-25T02:09:58;2.80;99.90
20911;DHT22;10615;42.702;23.314;2023-01-25T02:11:00;2.70;99.90
20911;DHT22;10615;42.702;23.314;2023-01-25T02:12:02;2.70;99.90
20911;DHT22;10615;42.702;23.314;2023-01-25T02:13:04;2.70;99.90
20911;DHT22;10615;42.702;23.314;2023-01-25T02:14:05;2.70;99.90
20911;DHT22;10615;42.702;23.314;2023-01-25T02:15:06;2.70;99.90
20911;DHT22;10615;42.702;23.314;2023-01-25T02:16:14;2.70;99.90
20911;DHT22;10615;42.702;23.314;2023-01-25T02:17:23;2.70;99.90
20911;DHT22;10615;42.702;23.314;2023-01-25T02:18:25;2.70;99.90
20911;DHT22;10615;42.702;23.314;2023-01-25T02:20:49;2.70;99.90
20911;DHT22;10615;42.702;23.314;2023-01-25T02:21:51;2.70;99.90
20911;DHT22;10615;42.702;23.314;2023-01-25T02:24:28;2.60;99.90
20911;DHT22;10615;42.702;23.314;2023-01-25T02:25:30;2.60;99.90
20911;DHT22;10615;42.702;23.314;2023-01-25T02:26:30;2.60;99.90
20911;DHT22;10615;42.702;23.314;2023-01-25T02:27:32;2.60;99.90
20911;DHT22;10615;42.702;23.314;2023-01-25T02:28:46;2.60;99.90
20911;DHT22;10615;42.702;23.314;2023-01-25T02:29:47;2.60;99.90
20911;DHT22;10615;42.702;23.314;2023-01-25T02:30:48;2.50;99.90
20911;DHT22;10615;42.702;23.314;2023-01-25T02:31:49;2.50;99.90
20911;DHT22;10615;42.702;23.314;2023-01-25T02:32:51;2.50;99.90
20911;DHT22;10615;42.702;23.314;2023-01-25T02:33:52;2.50;99.90
20911;DHT22;10615;42.702;23.314;2023-01-25T02:34:53;2.50;99.90
20911;DHT22;10615;42.702;23.314;2023-01-25T02:36:15;2.50;99.90
20911;DHT22;10615;42.702;23.314;2023-01-25T02:37:17;2.50;99.90
20911;DHT22;10615;42.702;23.314;2023-01-25T02:38:18;2.50;99.90
20911;DHT22;10615;42.702;23.314;2023-01-25T02:39:20;2.50;99.90
20911;DHT22;10615;42.702;23.314;2023-01-25T02:40:25;2.50;99.90
20911;DHT22;10615;42.702;23.314;2023-01-25T02:41:26;2.50;99.90
20911;DHT22;10615;42.702;23.314;2023-01-25T02:42:29;2.50;99.90
20911;DHT22;10615;42.702;23.314;2023-01-25T02:43:33;2.50;99.90
20911;DHT22;10615;42.702;23.314;2023-01-25T02:44:34;2.50;99.90
20911;DHT22;10615;42.702;23.314;2023-01-25T02:45:35;2.50;99.90
20911;DHT22;10615;42.702;23.314;2023-01-25T02:46:37;2.50;99.90
20911;DHT22;10615;42.702;23.314;2023-01-25T02:47:38;2.50;99.90
20911;DHT22;10615;42.702;23.314;2023-01-25T02:48:39;2.50;99.90
20911;DHT22;10615;42.702;23.314;2023-01-25T02:49:40;2.50;99.90
20911;DHT22;10615;42.702;23.314;2023-01-25T02:50:40;2.50;99.90
20911;DHT22;10615;42.702;23.314;2023-01-25T02:51:43;2.50;99.90
20911;DHT22;10615;42.702;23.314;2023-01-25T02:52:44;2.50;99.90
20911;DHT22;10615;42.702;23.314;2023-01-25T02:53:45;2.50;99.90
20911;DHT22;10615;42.702;23.314;2023-01-25T02:54:46;2.40;99.90
20911;DHT22;10615;42.702;23.314;2023-01-25T02:55:46;2.50;99.90
20911;DHT22;10615;42.702;23.314;2023-01-25T02:56:47;2.50;99.90
20911;DHT22;10615;42.702;23.314;2023-01-25T02:57:48;2.50;99.90
20911;DHT22;10615;42.702;23.314;2023-01-25T02:58:48;2.50;99.90
20911;DHT22;10615;42.702;23.314;2023-01-25T02:59:49;2.50;99.90
20911;DHT22;10615;42.702;23.314;2023-01-25T03:00:50;2.50;99.90
20911;DHT22;10615;42.702;23.314;2023-01-25T03:01:51;2.50;99.90
20911;DHT22;10615;42.702;23.314;2023-01-25T03:02:51;2.50;99.90
20911;DHT22;10615;42.702;23.314;2023-01-25T03:03:52;2.50;99.90
20911;DHT22;10615;42.702;23.314;2023-01-25T03:04:52;2.50;99.90
20911;DHT22;10615;42.702;23.314;2023-01-25T03:05:53;2.50;99.90
20911;DHT22;10615;42.702;23.314;2023-01-25T03:06:54;2.50;99.90
20911;DHT22;10615;42.702;23.314;2023-01-25T03:07:54;2.50;99.90
20911;DHT22;10615;42.702;23.314;2023-01-25T03:08:55;2.50;99.90
20911;DHT22;10615;42.702;23.314;2023-01-25T03:09:56;2.50;99.90
20911;DHT22;10615;42.702;23.314;2023-01-25T03:10:58;2.50;99.90
20911;DHT22;10615;42.702;23.314;2023-01-25T03:11:59;2.60;99.90
20911;DHT22;10615;42.702;23.314;2023-01-25T03:13:02;2.50;99.90
20911;DHT22;10615;42.702;23.314;2023-01-25T03:14:03;2.50;99.90
20911;DHT22;10615;42.702;23.314;2023-01-25T03:15:04;2.50;99.90
20911;DHT22;10615;42.702;23.314;2023-01-25T03:16:07;2.50;99.90
20911;DHT22;10615;42.702;23.314;2023-01-25T03:17:09;2.60;99.90
20911;DHT22;10615;42.702;23.314;2023-01-25T03:18:09;2.60;99.90
20911;DHT22;10615;42.702;23.314;2023-01-25T03:19:10;2.60;99.90
20911;DHT22;10615;42.702;23.314;2023-01-25T03:20:11;2.60;99.90
20911;DHT22;10615;42.702;23.314;2023-01-25T03:21:21;2.60;99.90
20911;DHT22;10615;42.702;23.314;2023-01-25T03:22:22;2.60;99.90
20911;DHT22;10615;42.702;23.314;2023-01-25T03:23:23;2.70;99.90
20911;DHT22;10615;42.702;23.314;2023-01-25T03:24:23;2.60;99.90
20911;DHT22;10615;42.702;23.314;2023-01-25T03:25:24;2.60;99.90
20911;DHT22;10615;42.702;23.314;2023-01-25T03:26:26;2.60;99.90
20911;DHT22;10615;42.702;23.314;2023-01-25T03:27:29;2.70;99.90
20911;DHT22;10615;42.702;23.314;2023-01-25T03:28:30;2.60;99.90
20911;DHT22;10615;42.702;23.314;2023-01-25T03:29:31;2.70;99.90
20911;DHT22;10615;42.702;23.314;2023-01-25T03:30:32;2.60;99.90
20911;DHT22;10615;42.702;23.314;2023-01-25T03:31:33;2.60;99.90
20911;DHT22;10615;42.702;23.314;2023-01-25T03:32:34;2.60;99.90
20911;DHT22;10615;42.702;23.314;2023-01-25T03:33:34;2.70;99.90
20911;DHT22;10615;42.702;23.314;2023-01-25T03:34:35;2.70;99.90
20911;DHT22;10615;42.702;23.314;2023-01-25T03:35:36;2.70;99.90
20911;DHT22;10615;42.702;23.314;2023-01-25T03:36:36;2.70;99.90
20911;DHT22;10615;42.702;23.314;2023-01-25T03:37:37;2.70;99.90
20911;DHT22;10615;42.702;23.314;2023-01-25T03:38:37;2.70;99.90
20911;DHT22;10615;42.702;23.314;2023-01-25T03:39:38;2.70;99.90
20911;DHT22;10615;42.702;23.314;2023-01-25T03:40:39;2.70;99.90
20911;DHT22;10615;42.702;23.314;2023-01-25T03:41:39;2.70;99.90
20911;DHT22;10615;42.702;23.314;2023-01-25T03:42:40;2.70;99.90
20911;DHT22;10615;42.702;23.314;2023-01-25T03:43:41;2.70;99.90
20911;DHT22;10615;42.702;23.314;2023-01-25T03:44:41;2.70;99.90
20911;DHT22;10615;42.702;23.314;2023-01-25T03:45:42;2.70;99.90
20911;DHT22;10615;42.702;23.314;2023-01-25T03:46:43;2.70;99.90
20911;DHT22;10615;42.702;23.314;2023-01-25T03:47:43;2.70;99.90
20911;DHT22;10615;42.702;23.314;2023-01-25T03:48:44;2.60;99.90
20911;DHT22;10615;42.702;23.314;2023-01-25T03:49:45;2.70;99.90
20911;DHT22;10615;42.702;23.314;2023-01-25T03:50:51;2.70;99.90
20911;DHT22;10615;42.702;23.314;2023-01-25T03:51:51;2.70;99.90
20911;DHT22;10615;42.702;23.314;2023-01-25T03:52:55;2.70;99.90
20911;DHT22;10615;42.702;23.314;2023-01-25T03:54:03;2.70;99.90
20911;DHT22;10615;42.702;23.314;2023-01-25T03:55:04;2.70;99.90
20911;DHT22;10615;42.702;23.314;2023-01-25T03:56:07;2.60;99.90
20911;DHT22;10615;42.702;23.314;2023-01-25T03:57:08;2.60;99.90
20911;DHT22;10615;42.702;23.314;2023-01-25T03:58:09;2.70;99.90
20911;DHT22;10615;42.702;23.314;2023-01-25T03:59:10;2.60;99.90
20911;DHT22;10615;42.702;23.314;2023-01-25T04:00:12;2.60;99.90
20911;DHT22;10615;42.702;23.314;2023-01-25T04:01:12;2.60;99.90
20911;DHT22;10615;42.702;23.314;2023-01-25T04:02:13;2.60;99.90
20911;DHT22;10615;42.702;23.314;2023-01-25T04:03:14;2.60;99.90
20911;DHT22;10615;42.702;23.314;2023-01-25T04:04:15;2.60;99.90
20911;DHT22;10615;42.702;23.314;2023-01-25T04:05:16;2.60;99.90
20911;DHT22;10615;42.702;23.314;2023-01-25T04:06:17;2.60;99.90
20911;DHT22;10615;42.702;23.314;2023-01-25T04:07:17;2.60;99.90
20911;DHT22;10615;42.702;23.314;2023-01-25T04:08:18;2.60;99.90
20911;DHT22;10615;42.702;23.314;2023-01-25T04:09:19;2.60;99.90
20911;DHT22;10615;42.702;23.314;2023-01-25T04:10:20;2.60;99.90
20911;DHT22;10615;42.702;23.314;2023-01-25T04:11:20;2.60;99.90
20911;DHT22;10615;42.702;23.314;2023-01-25T04:12:21;2.60;99.90
20911;DHT22;10615;42.702;23.314;2023-01-25T04:13:23;2.60;99.90
20911;DHT22;10615;42.702;23.314;2023-01-25T04:14:24;2.60;99.90
20911;DHT22;10615;42.702;23.314;2023-01-25T04:15:24;2.60;99.90
20911;DHT22;10615;42.702;23.314;2023-01-25T04:16:25;2.60;99.90
20911;DHT22;10615;42.702;23.314;2023-01-25T04:17:26;2.60;99.90
20911;DHT22;10615;42.702;23.314;2023-01-25T04:18:27;2.70;99.90
20911;DHT22;10615;42.702;23.314;2023-01-25T04:19:27;2.70;99.90
20911;DHT22;10615;42.702;23.314;2023-01-25T04:20:28;2.70;99.90
20911;DHT22;10615;42.702;23.314;2023-01-25T04:21:29;2.60;99.90
20911;DHT22;10615;42.702;23.314;2023-01-25T04:22:29;2.70;99.90
20911;DHT22;10615;42.702;23.314;2023-01-25T04:23:30;2.70;99.90
20911;DHT22;10615;42.702;23.314;2023-01-25T04:24:31;2.60;99.90
20911;DHT22;10615;42.702;23.314;2023-01-25T04:25:32;2.70;99.90
20911;DHT22;10615;42.702;23.314;2023-01-25T04:26:33;2.70;99.90
20911;DHT22;10615;42.702;23.314;2023-01-25T04:27:33;2.60;99.90
20911;DHT22;10615;42.702;23.314;2023-01-25T04:28:35;2.60;99.90
20911;DHT22;10615;42.702;23.314;2023-01-25T04:29:35;2.70;99.90
20911;DHT22;10615;42.702;23.314;2023-01-25T04:30:36;2.70;99.90
20911;DHT22;10615;42.702;23.314;2023-01-25T04:31:37;2.60;99.90
20911;DHT22;10615;42.702;23.314;2023-01-25T04:32:37;2.70;99.90
20911;DHT22;10615;42.702;23.314;2023-01-25T04:33:38;2.70;99.90
20911;DHT22;10615;42.702;23.314;2023-01-25T04:34:38;2.70;99.90
20911;DHT22;10615;42.702;23.314;2023-01-25T04:35:39;2.70;99.90
20911;DHT22;10615;42.702;23.314;2023-01-25T04:36:40;2.70;99.90
20911;DHT22;10615;42.702;23.314;2023-01-25T04:37:40;2.70;99.90
20911;DHT22;10615;42.702;23.314;2023-01-25T04:38:41;2.70;99.90
20911;DHT22;10615;42.702;23.314;2023-01-25T04:39:42;2.70;99.90
20911;DHT22;10615;42.702;23.314;2023-01-25T04:40:43;2.70;99.90
20911;DHT22;10615;42.702;23.314;2023-01-25T04:41:44;2.70;99.90
20911;DHT22;10615;42.702;23.314;2023-01-25T04:42:45;2.70;99.90
20911;DHT22;10615;42.702;23.314;2023-01-25T04:43:45;2.70;99.90
20911;DHT22;10615;42.702;23.314;2023-01-25T04:44:46;2.70;99.90
20911;DHT22;10615;42.702;23.314;2023-01-25T04:45:47;2.70;99.90
20911;DHT22;10615;42.702;23.314;2023-01-25T04:46:47;2.70;99.90
20911;DHT22;10615;42.702;23.314;2023-01-25T04:47:49;2.80;99.90
20911;DHT22;10615;42.702;23.314;2023-01-25T04:48:50;2.70;99.90
20911;DHT22;10615;42.702;23.314;2023-01-25T04:49:50;2.70;99.90
20911;DHT22;10615;42.702;23.314;2023-01-25T04:50:51;2.70;99.90
20911;DHT22;10615;42.702;23.314;2023-01-25T04:51:52;2.70;99.90
20911;DHT22;10615;42.702;23.314;2023-01-25T04:52:53;2.70;99.90
20911;DHT22;10615;42.702;23.314;2023-01-25T04:53:53;2.70;99.90
20911;DHT22;10615;42.702;23.314;2023-01-25T04:54:54;2.70;99.90
20911;DHT22;10615;42.702;23.314;2023-01-25T04:55:55;2.70;99.90
20911;DHT22;10615;42.702;23.314;2023-01-25T04:56:55;2.70;99.90
20911;DHT22;10615;42.702;23.314;2023-01-25T04:57:56;2.70;99.90
20911;DHT22;10615;42.702;23.314;2023-01-25T04:58:56;2.70;99.90
20911;DHT22;10615;42.702;23.314;2023-01-25T04:59:57;2.70;99.90
20911;DHT22;10615;42.702;23.314;2023-01-25T05:01:01;2.70;99.90
20911;DHT22;10615;42.702;23.314;2023-01-25T05:02:02;2.70;99.90
20911;DHT22;10615;42.702;23.314;2023-01-25T05:03:03;2.70;99.90
20911;DHT22;10615;42.702;23.314;2023-01-25T05:04:03;2.70;99.90
20911;DHT22;10615;42.702;23.314;2023-01-25T05:05:04;2.70;99.90
20911;DHT22;10615;42.702;23.314;2023-01-25T05:06:05;2.70;99.90
20911;DHT22;10615;42.702;23.314;2023-01-25T05:07:06;2.70;99.90
20911;DHT22;10615;42.702;23.314;2023-01-25T05:08:07;2.70;99.90
20911;DHT22;10615;42.702;23.314;2023-01-25T05:09:08;2.70;99.90
20911;DHT22;10615;42.702;23.314;2023-01-25T05:10:09;2.70;99.90
20911;DHT22;10615;42.702;23.314;2023-01-25T05:11:10;2.70;99.90
20911;DHT22;10615;42.702;23.314;2023-01-25T05:12:11;2.70;99.90
20911;DHT22;10615;42.702;23.314;2023-01-25T05:13:13;2.70;99.90
20911;DHT22;10615;42.702;23.314;2023-01-25T05:14:13;2.70;99.90
20911;DHT22;10615;42.702;23.314;2023-01-25T05:15:14;2.70;99.90
20911;DHT22;10615;42.702;23.314;2023-01-25T05:16:15;2.70;99.90
20911;DHT22;10615;42.702;23.314;2023-01-25T05:17:15;2.80;99.90
20911;DHT22;10615;42.702;23.314;2023-01-25T05:18:16;2.80;99.90
20911;DHT22;10615;42.702;23.314;2023-01-25T05:19:17;2.80;99.90
20911;DHT22;10615;42.702;23.314;2023-01-25T05:20:18;2.80;99.90
20911;DHT22;10615;42.702;23.314;2023-01-25T05:21:18;2.80;99.90
20911;DHT22;10615;42.702;23.314;2023-01-25T05:22:38;2.80;99.90
20911;DHT22;10615;42.702;23.314;2023-01-25T05:23:38;2.80;99.90
20911;DHT22;10615;42.702;23.314;2023-01-25T05:24:39;2.80;99.90
20911;DHT22;10615;42.702;23.314;2023-01-25T05:25:44;2.80;99.90
20911;DHT22;10615;42.702;23.314;2023-01-25T05:27:03;2.80;99.90
20911;DHT22;10615;42.702;23.314;2023-01-25T05:28:05;2.80;99.90
20911;DHT22;10615;42.702;23.314;2023-01-25T05:29:07;2.80;99.90
20911;DHT22;10615;42.702;23.314;2023-01-25T05:30:08;2.80;99.90
20911;DHT22;10615;42.702;23.314;2023-01-25T05:31:09;2.80;99.90
20911;DHT22;10615;42.702;23.314;2023-01-25T05:32:20;2.80;99.90
20911;DHT22;10615;42.702;23.314;2023-01-25T05:33:21;2.80;99.90
20911;DHT22;10615;42.702;23.314;2023-01-25T05:34:22;2.80;99.90
20911;DHT22;10615;42.702;23.314;2023-01-25T05:35:23;2.80;99.90
20911;DHT22;10615;42.702;23.314;2023-01-25T05:36:23;2.80;99.90
20911;DHT22;10615;42.702;23.314;2023-01-25T05:37:24;2.80;99.90
20911;DHT22;10615;42.702;23.314;2023-01-25T05:38:25;2.80;99.90
20911;DHT22;10615;42.702;23.314;2023-01-25T05:39:25;2.80;99.90
20911;DHT22;10615;42.702;23.314;2023-01-25T05:40:26;2.80;99.90
20911;DHT22;10615;42.702;23.314;2023-01-25T05:41:27;2.80;99.90
20911;DHT22;10615;42.702;23.314;2023-01-25T05:42:29;2.80;99.90
20911;DHT22;10615;42.702;23.314;2023-01-25T05:43:30;2.80;99.90
20911;DHT22;10615;42.702;23.314;2023-01-25T05:44:31;2.80;99.90
20911;DHT22;10615;42.702;23.314;2023-01-25T05:45:31;2.80;99.90
20911;DHT22;10615;42.702;23.314;2023-01-25T05:46:32;2.80;99.90
20911;DHT22;10615;42.702;23.314;2023-01-25T05:47:33;2.80;99.90
20911;DHT22;10615;42.702;23.314;2023-01-25T05:48:34;2.80;99.90
20911;DHT22;10615;42.702;23.314;2023-01-25T05:49:35;2.80;99.90
20911;DHT22;10615;42.702;23.314;2023-01-25T05:50:35;2.80;99.90
20911;DHT22;10615;42.702;23.314;2023-01-25T05:51:36;2.80;99.90
20911;DHT22;10615;42.702;23.314;2023-01-25T05:52:37;2.80;99.90
20911;DHT22;10615;42.702;23.314;2023-01-25T05:53:38;2.80;99.90
20911;DHT22;10615;42.702;23.314;2023-01-25T05:54:39;2.90;99.90
20911;DHT22;10615;42.702;23.314;2023-01-25T05:55:39;2.80;99.90
20911;DHT22;10615;42.702;23.314;2023-01-25T05:56:40;2.90;99.90
20911;DHT22;10615;42.702;23.314;2023-01-25T05:57:41;2.90;99.90
20911;DHT22;10615;42.702;23.314;2023-01-25T05:58:42;2.80;99.90
20911;DHT22;10615;42.702;23.314;2023-01-25T05:59:43;2.80;99.90
20911;DHT22;10615;42.702;23.314;2023-01-25T06:00:43;2.80;99.90
20911;DHT22;10615;42.702;23.314;2023-01-25T06:01:44;2.80;99.90
20911;DHT22;10615;42.702;23.314;2023-01-25T06:02:44;2.80;99.90
20911;DHT22;10615;42.702;23.314;2023-01-25T06:03:46;2.80;99.90
20911;DHT22;10615;42.702;23.314;2023-01-25T06:04:47;2.80;99.90
20911;DHT22;10615;42.702;23.314;2023-01-25T06:05:51;2.80;99.90
20911;DHT22;10615;42.702;23.314;2023-01-25T06:06:53;2.80;99.90
20911;DHT22;10615;42.702;23.314;2023-01-25T06:07:54;2.70;99.90
20911;DHT22;10615;42.702;23.314;2023-01-25T06:08:55;2.80;99.90
20911;DHT22;10615;42.702;23.314;2023-01-25T06:09:55;2.80;99.90
20911;DHT22;10615;42.702;23.314;2023-01-25T06:10:56;2.80;99.90
20911;DHT22;10615;42.702;23.314;2023-01-25T06:11:57;2.80;99.90
20911;DHT22;10615;42.702;23.314;2023-01-25T06:12:58;2.80;99.90
20911;DHT22;10615;42.702;23.314;2023-01-25T06:13:58;2.80;99.90
20911;DHT22;10615;42.702;23.314;2023-01-25T06:14:59;2.80;99.90
20911;DHT22;10615;42.702;23.314;2023-01-25T06:16:00;2.80;99.90
20911;DHT22;10615;42.702;23.314;2023-01-25T06:17:00;2.80;99.90
20911;DHT22;10615;42.702;23.314;2023-01-25T06:18:01;2.80;99.90
20911;DHT22;10615;42.702;23.314;2023-01-25T06:19:04;2.90;99.90
20911;DHT22;10615;42.702;23.314;2023-01-25T06:20:06;2.90;99.90
20911;DHT22;10615;42.702;23.314;2023-01-25T06:21:07;2.90;99.90
20911;DHT22;10615;42.702;23.314;2023-01-25T06:22:09;2.90;99.90
20911;DHT22;10615;42.702;23.314;2023-01-25T06:23:09;2.90;99.90
20911;DHT22;10615;42.702;23.314;2023-01-25T06:24:10;2.80;99.90
20911;DHT22;10615;42.702;23.314;2023-01-25T06:25:11;2.90;99.90
20911;DHT22;10615;42.702;23.314;2023-01-25T06:26:13;2.90;99.90
20911;DHT22;10615;42.702;23.314;2023-01-25T06:27:14;2.90;99.90
20911;DHT22;10615;42.702;23.314;2023-01-25T06:28:14;2.90;99.90
20911;DHT22;10615;42.702;23.314;2023-01-25T06:29:15;3.00;99.90
20911;DHT22;10615;42.702;23.314;2023-01-25T06:30:16;3.00;99.90
20911;DHT22;10615;42.702;23.314;2023-01-25T06:31:17;2.90;99.90
20911;DHT22;10615;42.702;23.314;2023-01-25T06:32:18;3.00;99.90
20911;DHT22;10615;42.702;23.314;2023-01-25T06:33:19;2.90;99.90
20911;DHT22;10615;42.702;23.314;2023-01-25T06:34:19;2.90;99.90
20911;DHT22;10615;42.702;23.314;2023-01-25T06:35:20;3.00;99.90
20911;DHT22;10615;42.702;23.314;2023-01-25T06:36:21;2.90;99.90
20911;DHT22;10615;42.702;23.314;2023-01-25T06:37:22;2.90;99.90
20911;DHT22;10615;42.702;23.314;2023-01-25T06:38:23;2.90;99.90